Sanctuary — WDI2390 — position and weather

sailwx.info

Track history (hours):
 
Tides and Currents Weather Stations Pressure Air Temp Water Temp Dewpoint Dewpoint Depression Visibility Wind Speed Wind Dir Waves Ship Positions

Sanctuary

Owner: Boston Harbor Cruises, Boston, MA. More information available from US FCC via Universal Licensing System and Coast Guard Vessel Documentation Center.

Last reported at 2018-Jul-22 14:19 UTC. Time now 2018-Jul-22 16:24 UTC.
Position N 42°18' W 070°59'.

Length 35 m; draft 2.9 m.

Type: High speed craft. MMSI: 367677570.

Date/timePositionNaut miles runAvg speedWind from/ knotsBaromVisibWave heightAir tempDewpointWater temp
2018-Jul-22 14:19N 42°18' W 070°59'4 3.9
2018-Jul-22 13:11N 42°22' W 071°03'0 0.6
2018-Jul-22 13:00N 42°22' W 071°03'2 4.4
2018-Jul-22 12:27N 42°20' W 071°00'6 0.5
2018-Jul-22 01:50N 42°15' W 070°58'513.1
2018-Jul-22 01:27N 42°19' W 070°60'3 6.1
2018-Jul-22 00:56N 42°22' W 071°03'921.3
2018-Jul-22 00:30N 42°19' W 070°51'1426.6
2018-Jul-21 23:58N 42°14' W 070°33'811.7
2018-Jul-21 23:16N 42°12' W 070°22'0 1.2
2018-Jul-21 22:56N 42°12' W 070°22'2 3.3
2018-Jul-21 22:21N 42°13' W 070°24'925.6
2018-Jul-21 22:00N 42°15' W 070°35'1325.3
2018-Jul-21 21:30N 42°19' W 070°52'914.0
2018-Jul-21 20:53N 42°22' W 071°03'0 0.0
2018-Jul-21 20:13N 42°22' W 071°03'0 1.3
2018-Jul-21 19:52N 42°21' W 071°02'1324.0
2018-Jul-21 19:19N 42°17' W 070°46'14 7.2
2018-Jul-21 17:19N 42°13' W 070°27'925.3
2018-Jul-21 16:58N 42°16' W 070°39'1325.9
2018-Jul-21 16:28N 42°19' W 070°55'611.1
2018-Jul-21 15:55N 42°22' W 071°03'0 0.0
2018-Jul-21 15:30N 42°22' W 071°03'0 0.1
2018-Jul-21 14:55N 42°22' W 071°03'1 1.9
2018-Jul-21 14:31N 42°21' W 071°02'7 6.0
2018-Jul-21 13:19N 42°15' W 070°58'0 0.0
2018-Jul-21 12:57N 42°15' W 070°58'0 0.0
2018-Jul-21 12:30N 42°15' W 070°58'0 0.0
2018-Jul-21 12:00N 42°15' W 070°58'0 0.0
2018-Jul-20 23:28N 42°15' W 070°58'614.4
2018-Jul-20 23:01N 42°21' W 071°01'2 3.4
2018-Jul-20 22:30N 42°22' W 071°03'0 0.1
2018-Jul-20 22:00N 42°22' W 071°03'918.6
2018-Jul-20 21:30N 42°19' W 070°51'1325.8
2018-Jul-20 21:00N 42°15' W 070°34'612.3
2018-Jul-20 20:31N 42°14' W 070°26'1 1.9
2018-Jul-20 20:00N 42°13' W 070°26'918.5
2018-Jul-20 19:31N 42°15' W 070°38'1325.6
2018-Jul-20 19:00N 42°19' W 070°54'713.8
2018-Jul-20 18:30N 42°22' W 071°03'0 0.0
2018-Jul-20 18:00N 42°22' W 071°03'816.0
2018-Jul-20 17:30N 42°19' W 070°53'1427.5
2018-Jul-20 17:00N 42°14' W 070°36'1325.7
2018-Jul-20 16:30N 42°09' W 070°20'3 5.2
2018-Jul-20 16:00N 42°11' W 070°20'1 1.7
2018-Jul-20 15:30N 42°11' W 070°21'1225.4
2018-Jul-20 15:01N 42°17' W 070°36'1427.2
2018-Jul-20 14:30N 42°19' W 070°54'713.5
2018-Jul-20 14:00N 42°22' W 071°03'0 0.0
2018-Jul-20 13:30N 42°22' W 071°03'0 0.6
2018-Jul-20 13:00N 42°22' W 071°03'0 0.9
2018-Jul-20 12:30N 42°21' W 071°02'815.0
2018-Jul-20 11:59N 42°15' W 070°55'4 9.3
2018-Jul-20 11:30N 42°19' W 070°59'4 7.4
2018-Jul-20 11:00N 42°21' W 071°02'816.0
2018-Jul-20 10:30N 42°15' W 070°55'1 1.0
2018-Jul-20 09:58N 42°16' W 070°55'2 0.2
2018-Jul-19 23:49N 42°15' W 070°58'3 8.3
2018-Jul-19 23:31N 42°17' W 070°56'714.4
2018-Jul-19 23:00N 42°22' W 071°03'0 0.5
2018-Jul-19 22:30N 42°22' W 071°03'918.1
2018-Jul-19 22:00N 42°19' W 070°51'1325.2
2018-Jul-19 21:30N 42°15' W 070°35'1016.5
2018-Jul-19 20:55N 42°12' W 070°22'1 2.1
2018-Jul-19 20:30N 42°12' W 070°22'4 8.1
2018-Jul-19 20:01N 42°13' W 070°27'1224.9
2018-Jul-19 19:30N 42°16' W 070°43'1223.8
2018-Jul-19 19:01N 42°20' W 070°59'3 6.9
2018-Jul-19 18:30N 42°22' W 071°03'0 0.0
2018-Jul-19 18:00N 42°22' W 071°03'511.0
2018-Jul-19 17:31N 42°20' W 070°56'1325.3
2018-Jul-19 17:00N 42°16' W 070°40'1325.1
2018-Jul-19 16:31N 42°11' W 070°24'4 6.7
2018-Jul-19 15:59N 42°11' W 070°19'4 7.2
2018-Jul-19 15:26N 42°12' W 070°25'1024.5
2018-Jul-19 15:00N 42°16' W 070°37'2019.4
2018-Jul-19 13:59N 42°22' W 071°03'0 0.1
2018-Jul-19 13:21N 42°22' W 071°03'0 1.1
2018-Jul-19 13:00N 42°21' W 071°02'1 2.1
2018-Jul-19 12:30N 42°21' W 071°01'714.5
2018-Jul-19 12:00N 42°15' W 070°55'511.1
2018-Jul-19 11:31N 42°20' W 070°60'2 4.1
2018-Jul-19 11:01N 42°21' W 071°01'815.1
2018-Jul-19 10:30N 42°15' W 070°55'1 1.4
2018-Jul-19 10:00N 42°16' W 070°56'0 0.0
2018-Jul-18 23:20N 42°16' W 070°55'0 0.1
2018-Jul-18 23:00N 42°16' W 070°55'815.4
2018-Jul-18 22:30N 42°21' W 071°03'0 1.0
2018-Jul-18 22:00N 42°21' W 071°02'1123.1
2018-Jul-18 21:30N 42°18' W 070°47'1326.2
2018-Jul-18 21:00N 42°15' W 070°30'612.0
2018-Jul-18 20:30N 42°13' W 070°23'1 1.0
2018-Jul-18 19:59N 42°13' W 070°22'1021.6
2018-Jul-18 19:30N 42°14' W 070°36'1426.0
2018-Jul-18 18:59N 42°19' W 070°53'8 7.2
2018-Jul-18 17:55N 42°22' W 071°03'1118.0
2018-Jul-18 17:19N 42°18' W 070°49'15 7.2
2018-Jul-18 15:11N 42°14' W 070°29'526.2
2018-Jul-18 15:00N 42°15' W 070°35'1526.6
2018-Jul-18 14:27N 42°19' W 070°55'6 4.9
2018-Jul-18 13:09N 42°22' W 071°03'0 1.6
2018-Jul-18 13:00N 42°21' W 071°03'1 2.7
2018-Jul-18 12:30N 42°21' W 071°01'714.2
2018-Jul-18 12:00N 42°15' W 070°55'611.5
2018-Jul-18 11:30N 42°20' W 070°60'6 5.3
2018-Jul-18 10:25N 42°15' W 070°55'6 0.5
2018-Jul-17 22:51N 42°20' W 070°60'3 7.9
2018-Jul-17 22:29N 42°22' W 071°03'1013.4
2018-Jul-17 21:47N 42°19' W 070°51'828.8
2018-Jul-17 21:30N 42°15' W 070°41'9 5.0
2018-Jul-17 19:40N 42°12' W 070°29'528.6
2018-Jul-17 19:30N 42°14' W 070°35'1428.7
2018-Jul-17 19:00N 42°19' W 070°52'816.4
2018-Jul-17 18:30N 42°22' W 071°03'0 0.1
2018-Jul-17 18:00N 42°22' W 071°03'611.4
2018-Jul-17 17:30N 42°20' W 070°56'15 6.1
2018-Jul-17 15:02N 42°14' W 070°37'225.7
2018-Jul-17 14:57N 42°15' W 070°40'1126.0
2018-Jul-17 14:30N 42°19' W 070°54'713.9
2018-Jul-17 14:01N 42°22' W 071°03'0 0.0
2018-Jul-17 13:30N 42°22' W 071°03'1 1.3
2018-Jul-17 13:00N 42°22' W 071°02'0 0.8
2018-Jul-17 12:30N 42°21' W 071°03'813.5
2018-Jul-17 11:54N 42°15' W 070°55'513.3
2018-Jul-17 11:30N 42°19' W 070°60'3 5.9
2018-Jul-17 11:00N 42°21' W 071°03'814.7
2018-Jul-17 10:27N 42°15' W 070°55'1 2.1
2018-Jul-17 10:00N 42°16' W 070°56'1 0.1
2018-Jul-17 00:02N 42°15' W 070°58'713.5
2018-Jul-16 23:31N 42°21' W 071°02'1 1.4
2018-Jul-16 23:00N 42°22' W 071°03'612.0
2018-Jul-16 22:30N 42°19' W 070°55'1426.5
2018-Jul-16 22:00N 42°17' W 070°37'6 2.6
2018-Jul-16 19:47N 42°16' W 070°30'726.2
2018-Jul-16 19:31N 42°17' W 070°39'1325.2
2018-Jul-16 19:00N 42°20' W 070°56'611.4
2018-Jul-16 18:30N 42°22' W 071°03'0 0.0
2018-Jul-16 18:00N 42°22' W 071°03'4 8.8
2018-Jul-16 17:30N 42°20' W 070°57'1326.1
2018-Jul-16 17:01N 42°18' W 070°40'1422.5
2018-Jul-16 16:23N 42°15' W 070°21'1 2.0
2018-Jul-16 15:59N 42°14' W 070°22'1 2.7
2018-Jul-16 15:29N 42°14' W 070°24'1225.3
2018-Jul-16 15:01N 42°16' W 070°40'1224.9
2018-Jul-16 14:31N 42°20' W 070°56'510.7
2018-Jul-16 14:00N 42°22' W 071°03'0 0.0
2018-Jul-16 13:30N 42°22' W 071°03'0 0.1
2018-Jul-16 13:00N 42°22' W 071°03'815.9
2018-Jul-16 12:31N 42°19' W 070°53'1326.5
2018-Jul-16 12:01N 42°14' W 070°36'1427.8
2018-Jul-16 11:29N 42°05' W 070°21'911.4
2018-Jul-16 10:43N 42°01' W 070°11'526.6
2018-Jul-16 10:31N 42°04' W 070°17'1529.1
2018-Jul-16 10:01N 42°12' W 070°33'1528.9
2018-Jul-16 09:31N 42°19' W 070°51'713.7
2018-Jul-16 09:00N 42°15' W 070°58'2 0.2
2018-Jul-16 01:25N 42°16' W 070°56'718.2
2018-Jul-16 01:00N 42°21' W 071°02'0 0.3
2018-Jul-16 00:30N 42°21' W 071°02'1223.8
2018-Jul-16 00:00N 42°17' W 070°47'8 3.8
2018-Jul-15 22:01N 42°13' W 070°38'027.0
2018-Jul-15 22:00N 42°13' W 070°39'1326.4
2018-Jul-15 21:31N 42°19' W 070°54'713.7
2018-Jul-15 21:00N 42°22' W 071°03'0 0.0
2018-Jul-15 20:30N 42°22' W 071°03'0 0.0
2018-Jul-15 20:00N 42°22' W 071°03'612.4
2018-Jul-15 19:30N 42°19' W 070°55'1325.7
2018-Jul-15 19:00N 42°13' W 070°39'1 0.5
2018-Jul-15 17:00N 42°14' W 070°39'1325.7
2018-Jul-15 16:30N 42°19' W 070°55'713.2
2018-Jul-15 16:00N 42°22' W 071°03'0 0.0
2018-Jul-15 15:30N 42°22' W 071°03'0 0.2
2018-Jul-15 15:00N 42°22' W 071°03'0 0.0
2018-Jul-15 14:30N 42°22' W 071°03'0 0.0
2018-Jul-15 14:00N 42°22' W 071°03'0 0.0
2018-Jul-15 13:31N 42°22' W 071°03'0 0.4
2018-Jul-15 13:00N 42°22' W 071°03'2 4.8
2018-Jul-15 12:30N 42°20' W 071°00'5 9.8
2018-Jul-15 12:00N 42°16' W 070°56'2 0.2
2018-Jul-15 02:09N 42°15' W 070°58'111.0
2018-Jul-15 02:00N 42°16' W 070°56'815.1
2018-Jul-15 01:30N 42°22' W 071°03'2 4.2
2018-Jul-15 01:00N 42°21' W 071°01'1224.3
2018-Jul-15 00:30N 42°18' W 070°45'1425.7
2018-Jul-14 23:57N 42°13' W 070°26'4 6.8
2018-Jul-14 23:23N 42°13' W 070°21'1 2.7
2018-Jul-14 23:01N 42°12' W 070°21'1 1.1
2018-Jul-14 22:30N 42°12' W 070°21'1222.7
2018-Jul-14 22:00N 42°15' W 070°36'1325.9
2018-Jul-14 21:31N 42°19' W 070°52'816.7
2018-Jul-14 21:00N 42°22' W 071°03'0 0.0
2018-Jul-14 20:30N 42°22' W 071°03'0 0.2
2018-Jul-14 20:01N 42°22' W 071°03'918.6
2018-Jul-14 19:30N 42°19' W 070°51'1326.6
2018-Jul-14 19:01N 42°12' W 070°36'816.8
2018-Jul-14 18:30N 42°08' W 070°26'4 7.6
2018-Jul-14 18:00N 42°10' W 070°21'612.0
2018-Jul-14 17:30N 42°15' W 070°23'1021.1
2018-Jul-14 17:00N 42°16' W 070°37'1325.9
2018-Jul-14 16:31N 42°19' W 070°54'714.4
2018-Jul-14 16:00N 42°22' W 071°03'0 0.0
2018-Jul-14 15:30N 42°22' W 071°03'0 0.2
2018-Jul-14 15:00N 42°22' W 071°03'8 7.8
2018-Jul-14 14:01N 42°15' W 070°58'1 1.2
2018-Jul-14 13:31N 42°15' W 070°58'0 0.0
2018-Jul-14 13:00N 42°15' W 070°58'0 0.0
2018-Jul-14 12:31N 42°15' W 070°58'0 0.0
2018-Jul-14 12:00N 42°15' W 070°58'0 0.0
2018-Jul-14 11:30N 42°15' W 070°58'0 0.0
2018-Jul-13 23:22N 42°15' W 070°58'411.2
2018-Jul-13 23:00N 42°19' W 070°59'4 8.3
2018-Jul-13 22:30N 42°22' W 071°03'918.9
2018-Jul-13 22:00N 42°19' W 070°51'1326.8
2018-Jul-13 21:30N 42°15' W 070°34'1020.6
2018-Jul-13 21:00N 42°11' W 070°21'0 0.3
2018-Jul-13 20:30N 42°11' W 070°21'713.3
2018-Jul-13 20:01N 42°12' W 070°30'815.1
2018-Jul-13 19:30N 42°15' W 070°39'1326.0
2018-Jul-13 19:01N 42°19' W 070°56'611.6
2018-Jul-13 18:30N 42°22' W 071°03'0 0.6
2018-Jul-13 18:00N 42°22' W 071°03'1019.9
2018-Jul-13 17:30N 42°18' W 070°50'1326.6
2018-Jul-13 17:00N 42°13' W 070°34'714.8
2018-Jul-13 16:31N 42°10' W 070°24'1 2.5
2018-Jul-13 16:00N 42°10' W 070°26'4 7.1
2018-Jul-13 15:30N 42°13' W 070°29'713.0
2018-Jul-13 14:58N 42°15' W 070°38'1225.4
2018-Jul-13 14:30N 42°19' W 070°53'8 7.8
2018-Jul-13 13:30N 42°22' W 071°03'0 0.6
2018-Jul-13 13:00N 42°21' W 071°03'1 1.6
2018-Jul-13 12:31N 42°21' W 071°02'815.1
2018-Jul-13 12:00N 42°15' W 070°55'611.5
2018-Jul-13 11:30N 42°20' W 070°60'3 5.2
2018-Jul-13 11:00N 42°21' W 071°03'816.5
2018-Jul-13 10:30N 42°15' W 070°55'2 3.8
2018-Jul-13 10:00N 42°15' W 070°58'0 0.0
2018-Jul-12 23:54N 42°15' W 070°58'410.6
2018-Jul-12 23:30N 42°19' W 070°59'4 7.9
2018-Jul-12 23:00N 42°22' W 071°03'1 1.6
2018-Jul-12 22:30N 42°21' W 071°02'1326.4
2018-Jul-12 22:01N 42°18' W 070°45'1426.9
2018-Jul-12 21:30N 42°13' W 070°28'611.8
2018-Jul-12 21:00N 42°10' W 070°21'3 6.2
2018-Jul-12 20:29N 42°12' W 070°18'4 8.0
2018-Jul-12 20:00N 42°13' W 070°23'1223.9
2018-Jul-12 19:30N 42°16' W 070°39'1325.6
2018-Jul-12 19:00N 42°20' W 070°56'611.1
2018-Jul-12 18:30N 42°22' W 071°03'0 0.0
2018-Jul-12 18:00N 42°22' W 071°03'1 1.9
2018-Jul-12 17:29N 42°21' W 071°02'1123.3
2018-Jul-12 17:01N 42°20' W 070°47'1224.7
2018-Jul-12 16:30N 42°23' W 070°30'510.6
2018-Jul-12 16:00N 42°23' W 070°23'1 2.9
2018-Jul-12 15:30N 42°24' W 070°25'918.7
2018-Jul-12 15:00N 42°25' W 070°37'1324.7
2018-Jul-12 14:30N 42°22' W 070°54'  
Track history (hours):
 
Tides and Currents Weather Stations Pressure Air Temp Water Temp Dewpoint Dewpoint Depression Visibility Wind Speed Wind Dir Waves Ship Positions

Sanctuary

Owner: Boston Harbor Cruises, Boston, MA. More information available from US FCC via Universal Licensing System and Coast Guard Vessel Documentation Center.

Last reported at 2018-Jul-22 14:19 UTC. Time now 2018-Jul-22 16:24 UTC.
Position N 42°18' W 070°59'.

Length 35 m; draft 2.9 m.

Type: High speed craft. MMSI: 367677570.

Date/timePositionNaut miles runAvg speedWind from/ knotsBaromVisibWave heightAir tempDewpointWater temp
2018-Jul-22 14:19N 42°18' W 070°59'4 3.9
2018-Jul-22 13:11N 42°22' W 071°03'0 0.6
2018-Jul-22 13:00N 42°22' W 071°03'2 4.4
2018-Jul-22 12:27N 42°20' W 071°00'6 0.5
2018-Jul-22 01:50N 42°15' W 070°58'513.1
2018-Jul-22 01:27N 42°19' W 070°60'3 6.1
2018-Jul-22 00:56N 42°22' W 071°03'921.3
2018-Jul-22 00:30N 42°19' W 070°51'1426.6
2018-Jul-21 23:58N 42°14' W 070°33'811.7
2018-Jul-21 23:16N 42°12' W 070°22'0 1.2
2018-Jul-21 22:56N 42°12' W 070°22'2 3.3
2018-Jul-21 22:21N 42°13' W 070°24'925.6
2018-Jul-21 22:00N 42°15' W 070°35'1325.3
2018-Jul-21 21:30N 42°19' W 070°52'914.0
2018-Jul-21 20:53N 42°22' W 071°03'0 0.0
2018-Jul-21 20:13N 42°22' W 071°03'0 1.3
2018-Jul-21 19:52N 42°21' W 071°02'1324.0
2018-Jul-21 19:19N 42°17' W 070°46'14 7.2
2018-Jul-21 17:19N 42°13' W 070°27'925.3
2018-Jul-21 16:58N 42°16' W 070°39'1325.9
2018-Jul-21 16:28N 42°19' W 070°55'611.1
2018-Jul-21 15:55N 42°22' W 071°03'0 0.0
2018-Jul-21 15:30N 42°22' W 071°03'0 0.1
2018-Jul-21 14:55N 42°22' W 071°03'1 1.9
2018-Jul-21 14:31N 42°21' W 071°02'7 6.0
2018-Jul-21 13:19N 42°15' W 070°58'0 0.0
2018-Jul-21 12:57N 42°15' W 070°58'0 0.0
2018-Jul-21 12:30N 42°15' W 070°58'0 0.0
2018-Jul-21 12:00N 42°15' W 070°58'0 0.0
2018-Jul-20 23:28N 42°15' W 070°58'614.4
2018-Jul-20 23:01N 42°21' W 071°01'2 3.4
2018-Jul-20 22:30N 42°22' W 071°03'0 0.1
2018-Jul-20 22:00N 42°22' W 071°03'918.6
2018-Jul-20 21:30N 42°19' W 070°51'1325.8
2018-Jul-20 21:00N 42°15' W 070°34'612.3
2018-Jul-20 20:31N 42°14' W 070°26'1 1.9
2018-Jul-20 20:00N 42°13' W 070°26'918.5
2018-Jul-20 19:31N 42°15' W 070°38'1325.6
2018-Jul-20 19:00N 42°19' W 070°54'713.8
2018-Jul-20 18:30N 42°22' W 071°03'0 0.0
2018-Jul-20 18:00N 42°22' W 071°03'816.0
2018-Jul-20 17:30N 42°19' W 070°53'1427.5
2018-Jul-20 17:00N 42°14' W 070°36'1325.7
2018-Jul-20 16:30N 42°09' W 070°20'3 5.2
2018-Jul-20 16:00N 42°11' W 070°20'1 1.7
2018-Jul-20 15:30N 42°11' W 070°21'1225.4
2018-Jul-20 15:01N 42°17' W 070°36'1427.2
2018-Jul-20 14:30N 42°19' W 070°54'713.5
2018-Jul-20 14:00N 42°22' W 071°03'0 0.0
2018-Jul-20 13:30N 42°22' W 071°03'0 0.6
2018-Jul-20 13:00N 42°22' W 071°03'0 0.9
2018-Jul-20 12:30N 42°21' W 071°02'815.0
2018-Jul-20 11:59N 42°15' W 070°55'4 9.3
2018-Jul-20 11:30N 42°19' W 070°59'4 7.4
2018-Jul-20 11:00N 42°21' W 071°02'816.0
2018-Jul-20 10:30N 42°15' W 070°55'1 1.0
2018-Jul-20 09:58N 42°16' W 070°55'2 0.2
2018-Jul-19 23:49N 42°15' W 070°58'3 8.3
2018-Jul-19 23:31N 42°17' W 070°56'714.4
2018-Jul-19 23:00N 42°22' W 071°03'0 0.5
2018-Jul-19 22:30N 42°22' W 071°03'918.1
2018-Jul-19 22:00N 42°19' W 070°51'1325.2
2018-Jul-19 21:30N 42°15' W 070°35'1016.5
2018-Jul-19 20:55N 42°12' W 070°22'1 2.1
2018-Jul-19 20:30N 42°12' W 070°22'4 8.1
2018-Jul-19 20:01N 42°13' W 070°27'1224.9
2018-Jul-19 19:30N 42°16' W 070°43'1223.8
2018-Jul-19 19:01N 42°20' W 070°59'3 6.9
2018-Jul-19 18:30N 42°22' W 071°03'0 0.0
2018-Jul-19 18:00N 42°22' W 071°03'511.0
2018-Jul-19 17:31N 42°20' W 070°56'1325.3
2018-Jul-19 17:00N 42°16' W 070°40'1325.1
2018-Jul-19 16:31N 42°11' W 070°24'4 6.7
2018-Jul-19 15:59N 42°11' W 070°19'4 7.2
2018-Jul-19 15:26N 42°12' W 070°25'1024.5
2018-Jul-19 15:00N 42°16' W 070°37'2019.4
2018-Jul-19 13:59N 42°22' W 071°03'0 0.1
2018-Jul-19 13:21N 42°22' W 071°03'0 1.1
2018-Jul-19 13:00N 42°21' W 071°02'1 2.1
2018-Jul-19 12:30N 42°21' W 071°01'714.5
2018-Jul-19 12:00N 42°15' W 070°55'511.1
2018-Jul-19 11:31N 42°20' W 070°60'2 4.1
2018-Jul-19 11:01N 42°21' W 071°01'815.1
2018-Jul-19 10:30N 42°15' W 070°55'1 1.4
2018-Jul-19 10:00N 42°16' W 070°56'0 0.0
2018-Jul-18 23:20N 42°16' W 070°55'0 0.1
2018-Jul-18 23:00N 42°16' W 070°55'815.4
2018-Jul-18 22:30N 42°21' W 071°03'0 1.0
2018-Jul-18 22:00N 42°21' W 071°02'1123.1
2018-Jul-18 21:30N 42°18' W 070°47'1326.2
2018-Jul-18 21:00N 42°15' W 070°30'612.0
2018-Jul-18 20:30N 42°13' W 070°23'1 1.0
2018-Jul-18 19:59N 42°13' W 070°22'1021.6
2018-Jul-18 19:30N 42°14' W 070°36'1426.0
2018-Jul-18 18:59N 42°19' W 070°53'8 7.2
2018-Jul-18 17:55N 42°22' W 071°03'1118.0
2018-Jul-18 17:19N 42°18' W 070°49'15 7.2
2018-Jul-18 15:11N 42°14' W 070°29'526.2
2018-Jul-18 15:00N 42°15' W 070°35'1526.6
2018-Jul-18 14:27N 42°19' W 070°55'6 4.9
2018-Jul-18 13:09N 42°22' W 071°03'0 1.6
2018-Jul-18 13:00N 42°21' W 071°03'1 2.7
2018-Jul-18 12:30N 42°21' W 071°01'714.2
2018-Jul-18 12:00N 42°15' W 070°55'611.5
2018-Jul-18 11:30N 42°20' W 070°60'6 5.3
2018-Jul-18 10:25N 42°15' W 070°55'6 0.5
2018-Jul-17 22:51N 42°20' W 070°60'3 7.9
2018-Jul-17 22:29N 42°22' W 071°03'1013.4
2018-Jul-17 21:47N 42°19' W 070°51'828.8
2018-Jul-17 21:30N 42°15' W 070°41'9 5.0
2018-Jul-17 19:40N 42°12' W 070°29'528.6
2018-Jul-17 19:30N 42°14' W 070°35'1428.7
2018-Jul-17 19:00N 42°19' W 070°52'816.4
2018-Jul-17 18:30N 42°22' W 071°03'0 0.1
2018-Jul-17 18:00N 42°22' W 071°03'611.4
2018-Jul-17 17:30N 42°20' W 070°56'15 6.1
2018-Jul-17 15:02N 42°14' W 070°37'225.7
2018-Jul-17 14:57N 42°15' W 070°40'1126.0
2018-Jul-17 14:30N 42°19' W 070°54'713.9
2018-Jul-17 14:01N 42°22' W 071°03'0 0.0
2018-Jul-17 13:30N 42°22' W 071°03'1 1.3
2018-Jul-17 13:00N 42°22' W 071°02'0 0.8
2018-Jul-17 12:30N 42°21' W 071°03'813.5
2018-Jul-17 11:54N 42°15' W 070°55'513.3
2018-Jul-17 11:30N 42°19' W 070°60'3 5.9
2018-Jul-17 11:00N 42°21' W 071°03'814.7
2018-Jul-17 10:27N 42°15' W 070°55'1 2.1
2018-Jul-17 10:00N 42°16' W 070°56'1 0.1
2018-Jul-17 00:02N 42°15' W 070°58'713.5
2018-Jul-16 23:31N 42°21' W 071°02'1 1.4
2018-Jul-16 23:00N 42°22' W 071°03'612.0
2018-Jul-16 22:30N 42°19' W 070°55'1426.5
2018-Jul-16 22:00N 42°17' W 070°37'6 2.6
2018-Jul-16 19:47N 42°16' W 070°30'726.2
2018-Jul-16 19:31N 42°17' W 070°39'1325.2
2018-Jul-16 19:00N 42°20' W 070°56'611.4
2018-Jul-16 18:30N 42°22' W 071°03'0 0.0
2018-Jul-16 18:00N 42°22' W 071°03'4 8.8
2018-Jul-16 17:30N 42°20' W 070°57'1326.1
2018-Jul-16 17:01N 42°18' W 070°40'1422.5
2018-Jul-16 16:23N 42°15' W 070°21'1 2.0
2018-Jul-16 15:59N 42°14' W 070°22'1 2.7
2018-Jul-16 15:29N 42°14' W 070°24'1225.3
2018-Jul-16 15:01N 42°16' W 070°40'1224.9
2018-Jul-16 14:31N 42°20' W 070°56'510.7
2018-Jul-16 14:00N 42°22' W 071°03'0 0.0
2018-Jul-16 13:30N 42°22' W 071°03'0 0.1
2018-Jul-16 13:00N 42°22' W 071°03'815.9
2018-Jul-16 12:31N 42°19' W 070°53'1326.5
2018-Jul-16 12:01N 42°14' W 070°36'1427.8
2018-Jul-16 11:29N 42°05' W 070°21'911.4
2018-Jul-16 10:43N 42°01' W 070°11'526.6
2018-Jul-16 10:31N 42°04' W 070°17'1529.1
2018-Jul-16 10:01N 42°12' W 070°33'1528.9
2018-Jul-16 09:31N 42°19' W 070°51'713.7
2018-Jul-16 09:00N 42°15' W 070°58'2 0.2
2018-Jul-16 01:25N 42°16' W 070°56'718.2
2018-Jul-16 01:00N 42°21' W 071°02'0 0.3
2018-Jul-16 00:30N 42°21' W 071°02'1223.8
2018-Jul-16 00:00N 42°17' W 070°47'8 3.8
2018-Jul-15 22:01N 42°13' W 070°38'027.0
2018-Jul-15 22:00N 42°13' W 070°39'1326.4
2018-Jul-15 21:31N 42°19' W 070°54'713.7
2018-Jul-15 21:00N 42°22' W 071°03'0 0.0
2018-Jul-15 20:30N 42°22' W 071°03'0 0.0
2018-Jul-15 20:00N 42°22' W 071°03'612.4
2018-Jul-15 19:30N 42°19' W 070°55'1325.7
2018-Jul-15 19:00N 42°13' W 070°39'1 0.5
2018-Jul-15 17:00N 42°14' W 070°39'1325.7
2018-Jul-15 16:30N 42°19' W 070°55'713.2
2018-Jul-15 16:00N 42°22' W 071°03'0 0.0
2018-Jul-15 15:30N 42°22' W 071°03'0 0.2
2018-Jul-15 15:00N 42°22' W 071°03'0 0.0
2018-Jul-15 14:30N 42°22' W 071°03'0 0.0
2018-Jul-15 14:00N 42°22' W 071°03'0 0.0
2018-Jul-15 13:31N 42°22' W 071°03'0 0.4
2018-Jul-15 13:00N 42°22' W 071°03'2 4.8
2018-Jul-15 12:30N 42°20' W 071°00'5 9.8
2018-Jul-15 12:00N 42°16' W 070°56'2 0.2
2018-Jul-15 02:09N 42°15' W 070°58'111.0
2018-Jul-15 02:00N 42°16' W 070°56'815.1
2018-Jul-15 01:30N 42°22' W 071°03'2 4.2
2018-Jul-15 01:00N 42°21' W 071°01'1224.3
2018-Jul-15 00:30N 42°18' W 070°45'1425.7
2018-Jul-14 23:57N 42°13' W 070°26'4 6.8
2018-Jul-14 23:23N 42°13' W 070°21'1 2.7
2018-Jul-14 23:01N 42°12' W 070°21'1 1.1
2018-Jul-14 22:30N 42°12' W 070°21'1222.7
2018-Jul-14 22:00N 42°15' W 070°36'1325.9
2018-Jul-14 21:31N 42°19' W 070°52'816.7
2018-Jul-14 21:00N 42°22' W 071°03'0 0.0
2018-Jul-14 20:30N 42°22' W 071°03'0 0.2
2018-Jul-14 20:01N 42°22' W 071°03'918.6
2018-Jul-14 19:30N 42°19' W 070°51'1326.6
2018-Jul-14 19:01N 42°12' W 070°36'816.8
2018-Jul-14 18:30N 42°08' W 070°26'4 7.6
2018-Jul-14 18:00N 42°10' W 070°21'612.0
2018-Jul-14 17:30N 42°15' W 070°23'1021.1
2018-Jul-14 17:00N 42°16' W 070°37'1325.9
2018-Jul-14 16:31N 42°19' W 070°54'714.4
2018-Jul-14 16:00N 42°22' W 071°03'0 0.0
2018-Jul-14 15:30N 42°22' W 071°03'0 0.2
2018-Jul-14 15:00N 42°22' W 071°03'8 7.8
2018-Jul-14 14:01N 42°15' W 070°58'1 1.2
2018-Jul-14 13:31N 42°15' W 070°58'0 0.0
2018-Jul-14 13:00N 42°15' W 070°58'0 0.0
2018-Jul-14 12:31N 42°15' W 070°58'0 0.0
2018-Jul-14 12:00N 42°15' W 070°58'0 0.0
2018-Jul-14 11:30N 42°15' W 070°58'0 0.0
2018-Jul-13 23:22N 42°15' W 070°58'411.2
2018-Jul-13 23:00N 42°19' W 070°59'4 8.3
2018-Jul-13 22:30N 42°22' W 071°03'918.9
2018-Jul-13 22:00N 42°19' W 070°51'1326.8
2018-Jul-13 21:30N 42°15' W 070°34'1020.6
2018-Jul-13 21:00N 42°11' W 070°21'0 0.3
2018-Jul-13 20:30N 42°11' W 070°21'713.3
2018-Jul-13 20:01N 42°12' W 070°30'815.1
2018-Jul-13 19:30N 42°15' W 070°39'1326.0
2018-Jul-13 19:01N 42°19' W 070°56'611.6
2018-Jul-13 18:30N 42°22' W 071°03'0 0.6
2018-Jul-13 18:00N 42°22' W 071°03'1019.9
2018-Jul-13 17:30N 42°18' W 070°50'1326.6
2018-Jul-13 17:00N 42°13' W 070°34'714.8
2018-Jul-13 16:31N 42°10' W 070°24'1 2.5
2018-Jul-13 16:00N 42°10' W 070°26'4 7.1
2018-Jul-13 15:30N 42°13' W 070°29'713.0
2018-Jul-13 14:58N 42°15' W 070°38'1225.4
2018-Jul-13 14:30N 42°19' W 070°53'8 7.8
2018-Jul-13 13:30N 42°22' W 071°03'0 0.6
2018-Jul-13 13:00N 42°21' W 071°03'1 1.6
2018-Jul-13 12:31N 42°21' W 071°02'815.1
2018-Jul-13 12:00N 42°15' W 070°55'611.5
2018-Jul-13 11:30N 42°20' W 070°60'3 5.2
2018-Jul-13 11:00N 42°21' W 071°03'816.5
2018-Jul-13 10:30N 42°15' W 070°55'2 3.8
2018-Jul-13 10:00N 42°15' W 070°58'0 0.0
2018-Jul-12 23:54N 42°15' W 070°58'410.6
2018-Jul-12 23:30N 42°19' W 070°59'4 7.9
2018-Jul-12 23:00N 42°22' W 071°03'1 1.6
2018-Jul-12 22:30N 42°21' W 071°02'1326.4
2018-Jul-12 22:01N 42°18' W 070°45'1426.9
2018-Jul-12 21:30N 42°13' W 070°28'611.8
2018-Jul-12 21:00N 42°10' W 070°21'3 6.2
2018-Jul-12 20:29N 42°12' W 070°18'4 8.0
2018-Jul-12 20:00N 42°13' W 070°23'1223.9
2018-Jul-12 19:30N 42°16' W 070°39'1325.6
2018-Jul-12 19:00N 42°20' W 070°56'611.1
2018-Jul-12 18:30N 42°22' W 071°03'0 0.0
2018-Jul-12 18:00N 42°22' W 071°03'1 1.9
2018-Jul-12 17:29N 42°21' W 071°02'1123.3
2018-Jul-12 17:01N 42°20' W 070°47'1224.7
2018-Jul-12 16:30N 42°23' W 070°30'510.6
2018-Jul-12 16:00N 42°23' W 070°23'1 2.9
2018-Jul-12 15:30N 42°24' W 070°25'918.7
2018-Jul-12 15:00N 42°25' W 070°37'1324.7
2018-Jul-12 14:30N 42°22' W 070°54'  

Dump ship's entire track history